sensor_id;sensor_type;location;lat;lon;timestamp;P1;durP1;ratioP1;P2;durP2;ratioP2
61702;SDS011;47622;47.726;3.298;2022-11-15T00:00:24;5.82;;;4.00;;
61702;SDS011;47622;47.726;3.298;2022-11-15T00:02:53;10.52;;;4.15;;
61702;SDS011;47622;47.726;3.298;2022-11-15T00:05:19;8.82;;;3.65;;
61702;SDS011;47622;47.726;3.298;2022-11-15T00:07:45;9.18;;;3.55;;
61702;SDS011;47622;47.726;3.298;2022-11-15T00:10:10;8.38;;;3.92;;
61702;SDS011;47622;47.726;3.298;2022-11-15T00:12:36;5.40;;;3.30;;
61702;SDS011;47622;47.726;3.298;2022-11-15T00:15:02;6.28;;;3.75;;
61702;SDS011;47622;47.726;3.298;2022-11-15T00:17:28;10.10;;;4.28;;
61702;SDS011;47622;47.726;3.298;2022-11-15T00:19:54;9.35;;;4.10;;
61702;SDS011;47622;47.726;3.298;2022-11-15T00:22:20;5.65;;;3.78;;
61702;SDS011;47622;47.726;3.298;2022-11-15T00:24:46;6.50;;;3.97;;
61702;SDS011;47622;47.726;3.298;2022-11-15T00:27:11;5.20;;;3.47;;
61702;SDS011;47622;47.726;3.298;2022-11-15T00:29:37;5.95;;;3.90;;
61702;SDS011;47622;47.726;3.298;2022-11-15T00:32:04;7.43;;;3.58;;
61702;SDS011;47622;47.726;3.298;2022-11-15T00:34:30;5.65;;;3.13;;
61702;SDS011;47622;47.726;3.298;2022-11-15T00:36:55;7.90;;;3.25;;
61702;SDS011;47622;47.726;3.298;2022-11-15T00:39:21;6.80;;;3.38;;
61702;SDS011;47622;47.726;3.298;2022-11-15T00:41:47;5.10;;;3.28;;
61702;SDS011;47622;47.726;3.298;2022-11-15T00:44:12;7.03;;;3.17;;
61702;SDS011;47622;47.726;3.298;2022-11-15T00:46:38;7.68;;;3.38;;
61702;SDS011;47622;47.726;3.298;2022-11-15T00:49:04;7.57;;;3.30;;
61702;SDS011;47622;47.726;3.298;2022-11-15T00:51:29;5.47;;;3.35;;
61702;SDS011;47622;47.726;3.298;2022-11-15T00:53:55;5.43;;;3.50;;
61702;SDS011;47622;47.726;3.298;2022-11-15T00:56:20;5.43;;;3.20;;
61702;SDS011;47622;47.726;3.298;2022-11-15T00:58:46;6.65;;;3.40;;
61702;SDS011;47622;47.726;3.298;2022-11-15T01:01:13;11.65;;;3.35;;
61702;SDS011;47622;47.726;3.298;2022-11-15T01:03:40;4.50;;;2.90;;
61702;SDS011;47622;47.726;3.298;2022-11-15T01:06:06;6.15;;;2.90;;
61702;SDS011;47622;47.726;3.298;2022-11-15T01:08:33;4.75;;;2.60;;
61702;SDS011;47622;47.726;3.298;2022-11-15T01:11:02;6.50;;;2.90;;
61702;SDS011;47622;47.726;3.298;2022-11-15T01:13:30;5.38;;;2.70;;
61702;SDS011;47622;47.726;3.298;2022-11-15T01:15:57;4.15;;;2.25;;
61702;SDS011;47622;47.726;3.298;2022-11-15T01:18:23;6.63;;;2.90;;
61702;SDS011;47622;47.726;3.298;2022-11-15T01:20:49;4.47;;;2.63;;
61702;SDS011;47622;47.726;3.298;2022-11-15T01:23:14;5.13;;;2.85;;
61702;SDS011;47622;47.726;3.298;2022-11-15T01:25:40;4.63;;;2.90;;
61702;SDS011;47622;47.726;3.298;2022-11-15T01:28:06;3.22;;;2.92;;
61702;SDS011;47622;47.726;3.298;2022-11-15T01:30:31;6.88;;;3.00;;
61702;SDS011;47622;47.726;3.298;2022-11-15T01:32:57;6.25;;;3.25;;
61702;SDS011;47622;47.726;3.298;2022-11-15T01:35:23;7.22;;;3.05;;
61702;SDS011;47622;47.726;3.298;2022-11-15T01:37:49;6.70;;;2.97;;
61702;SDS011;47622;47.726;3.298;2022-11-15T01:40:14;7.45;;;2.90;;
61702;SDS011;47622;47.726;3.298;2022-11-15T01:42:40;4.40;;;2.95;;
61702;SDS011;47622;47.726;3.298;2022-11-15T01:45:09;4.55;;;2.45;;
61702;SDS011;47622;47.726;3.298;2022-11-15T01:47:44;6.82;;;2.72;;
61702;SDS011;47622;47.726;3.298;2022-11-15T01:50:14;4.65;;;2.83;;
61702;SDS011;47622;47.726;3.298;2022-11-15T01:52:45;7.32;;;2.83;;
61702;SDS011;47622;47.726;3.298;2022-11-15T01:55:15;4.10;;;2.40;;
61702;SDS011;47622;47.726;3.298;2022-11-15T01:57:44;6.75;;;2.42;;
61702;SDS011;47622;47.726;3.298;2022-11-15T02:00:12;3.92;;;2.63;;
61702;SDS011;47622;47.726;3.298;2022-11-15T02:02:38;4.10;;;2.50;;
61702;SDS011;47622;47.726;3.298;2022-11-15T02:05:05;3.53;;;2.58;;
61702;SDS011;47622;47.726;3.298;2022-11-15T02:07:31;7.03;;;2.80;;
61702;SDS011;47622;47.726;3.298;2022-11-15T02:09:59;6.05;;;2.90;;
61702;SDS011;47622;47.726;3.298;2022-11-15T02:12:38;4.82;;;2.78;;
61702;SDS011;47622;47.726;3.298;2022-11-15T02:15:04;7.32;;;4.35;;
61702;SDS011;47622;47.726;3.298;2022-11-15T02:17:54;2.72;;;2.47;;
61702;SDS011;47622;47.726;3.298;2022-11-15T02:23:18;6.72;;;2.70;;
61702;SDS011;47622;47.726;3.298;2022-11-15T02:31:28;3.22;;;2.47;;
61702;SDS011;47622;47.726;3.298;2022-11-15T02:42:21;7.10;;;2.58;;
61702;SDS011;47622;47.726;3.298;2022-11-15T02:47:41;3.58;;;2.45;;
61702;SDS011;47622;47.726;3.298;2022-11-15T02:50:12;8.63;;;2.65;;
61702;SDS011;47622;47.726;3.298;2022-11-15T02:52:44;3.90;;;2.60;;
61702;SDS011;47622;47.726;3.298;2022-11-15T02:55:30;5.55;;;2.88;;
61702;SDS011;47622;47.726;3.298;2022-11-15T03:01:04;7.88;;;2.85;;
61702;SDS011;47622;47.726;3.298;2022-11-15T03:09:05;7.40;;;2.97;;
61702;SDS011;47622;47.726;3.298;2022-11-15T03:11:38;6.43;;;3.17;;
61702;SDS011;47622;47.726;3.298;2022-11-15T03:19:57;5.68;;;2.72;;
61702;SDS011;47622;47.726;3.298;2022-11-15T03:22:23;5.05;;;2.88;;
61702;SDS011;47622;47.726;3.298;2022-11-15T03:24:53;5.72;;;3.03;;
61702;SDS011;47622;47.726;3.298;2022-11-15T03:27:23;7.10;;;3.38;;
61702;SDS011;47622;47.726;3.298;2022-11-15T03:29:54;3.90;;;2.85;;
61702;SDS011;47622;47.726;3.298;2022-11-15T03:32:28;6.43;;;2.72;;
61702;SDS011;47622;47.726;3.298;2022-11-15T03:35:05;6.25;;;3.20;;
61702;SDS011;47622;47.726;3.298;2022-11-15T03:40:05;7.15;;;3.13;;
61702;SDS011;47622;47.726;3.298;2022-11-15T03:45:23;6.60;;;4.10;;
61702;SDS011;47622;47.726;3.298;2022-11-15T03:48:13;11.93;;;4.25;;
61702;SDS011;47622;47.726;3.298;2022-11-15T03:50:44;10.15;;;4.13;;
61702;SDS011;47622;47.726;3.298;2022-11-15T03:53:11;5.53;;;4.07;;
61702;SDS011;47622;47.726;3.298;2022-11-15T03:55:38;7.35;;;3.70;;
61702;SDS011;47622;47.726;3.298;2022-11-15T03:58:03;6.80;;;4.20;;
61702;SDS011;47622;47.726;3.298;2022-11-15T04:00:29;9.13;;;4.10;;
61702;SDS011;47622;47.726;3.298;2022-11-15T04:02:55;8.55;;;4.10;;
61702;SDS011;47622;47.726;3.298;2022-11-15T04:05:20;8.48;;;4.00;;
61702;SDS011;47622;47.726;3.298;2022-11-15T04:07:46;7.63;;;4.43;;
61702;SDS011;47622;47.726;3.298;2022-11-15T04:10:14;8.98;;;4.32;;
61702;SDS011;47622;47.726;3.298;2022-11-15T04:12:40;6.82;;;3.85;;
61702;SDS011;47622;47.726;3.298;2022-11-15T04:15:11;8.00;;;4.25;;
61702;SDS011;47622;47.726;3.298;2022-11-15T04:17:54;7.10;;;4.45;;
61702;SDS011;47622;47.726;3.298;2022-11-15T04:23:10;9.50;;;3.70;;
61702;SDS011;47622;47.726;3.298;2022-11-15T04:25:56;4.78;;;3.70;;
61702;SDS011;47622;47.726;3.298;2022-11-15T04:28:24;9.02;;;3.72;;
61702;SDS011;47622;47.726;3.298;2022-11-15T04:30:50;5.13;;;3.40;;
61702;SDS011;47622;47.726;3.298;2022-11-15T04:33:15;6.90;;;3.42;;
61702;SDS011;47622;47.726;3.298;2022-11-15T04:35:41;6.05;;;3.75;;
61702;SDS011;47622;47.726;3.298;2022-11-15T04:38:08;7.00;;;3.47;;
61702;SDS011;47622;47.726;3.298;2022-11-15T04:40:36;8.20;;;3.80;;
61702;SDS011;47622;47.726;3.298;2022-11-15T04:43:02;5.28;;;3.63;;
61702;SDS011;47622;47.726;3.298;2022-11-15T04:45:28;7.13;;;2.88;;
61702;SDS011;47622;47.726;3.298;2022-11-15T04:47:57;6.18;;;3.13;;
61702;SDS011;47622;47.726;3.298;2022-11-15T04:50:23;5.18;;;3.08;;
61702;SDS011;47622;47.726;3.298;2022-11-15T04:52:52;6.35;;;3.47;;
61702;SDS011;47622;47.726;3.298;2022-11-15T04:55:18;5.70;;;2.88;;
61702;SDS011;47622;47.726;3.298;2022-11-15T04:57:44;4.70;;;3.30;;
61702;SDS011;47622;47.726;3.298;2022-11-15T05:00:12;5.40;;;3.33;;
61702;SDS011;47622;47.726;3.298;2022-11-15T05:02:39;9.00;;;3.03;;
61702;SDS011;47622;47.726;3.298;2022-11-15T05:05:23;5.72;;;3.00;;
61702;SDS011;47622;47.726;3.298;2022-11-15T05:07:49;5.85;;;2.90;;
61702;SDS011;47622;47.726;3.298;2022-11-15T05:10:16;5.05;;;2.83;;
61702;SDS011;47622;47.726;3.298;2022-11-15T05:12:41;6.30;;;3.10;;
61702;SDS011;47622;47.726;3.298;2022-11-15T05:15:07;5.15;;;3.00;;
61702;SDS011;47622;47.726;3.298;2022-11-15T05:17:33;5.28;;;2.65;;
61702;SDS011;47622;47.726;3.298;2022-11-15T05:19:59;6.82;;;2.90;;
61702;SDS011;47622;47.726;3.298;2022-11-15T05:22:25;3.03;;;2.53;;
61702;SDS011;47622;47.726;3.298;2022-11-15T05:24:50;3.80;;;2.60;;
61702;SDS011;47622;47.726;3.298;2022-11-15T05:27:16;5.53;;;2.75;;
61702;SDS011;47622;47.726;3.298;2022-11-15T05:29:42;7.10;;;3.15;;
61702;SDS011;47622;47.726;3.298;2022-11-15T05:32:08;6.72;;;2.90;;
61702;SDS011;47622;47.726;3.298;2022-11-15T05:34:35;3.95;;;2.95;;
61702;SDS011;47622;47.726;3.298;2022-11-15T05:37:00;5.88;;;2.90;;
61702;SDS011;47622;47.726;3.298;2022-11-15T05:39:26;6.88;;;2.95;;
61702;SDS011;47622;47.726;3.298;2022-11-15T05:41:53;5.97;;;2.92;;
61702;SDS011;47622;47.726;3.298;2022-11-15T05:44:26;4.63;;;2.92;;
61702;SDS011;47622;47.726;3.298;2022-11-15T05:46:52;3.92;;;2.83;;
61702;SDS011;47622;47.726;3.298;2022-11-15T05:49:21;7.88;;;3.67;;
61702;SDS011;47622;47.726;3.298;2022-11-15T05:51:49;3.97;;;3.05;;
61702;SDS011;47622;47.726;3.298;2022-11-15T05:54:16;4.43;;;2.90;;
61702;SDS011;47622;47.726;3.298;2022-11-15T05:56:43;4.35;;;2.78;;
61702;SDS011;47622;47.726;3.298;2022-11-15T05:59:09;8.70;;;3.10;;
61702;SDS011;47622;47.726;3.298;2022-11-15T06:01:35;6.50;;;2.95;;
61702;SDS011;47622;47.726;3.298;2022-11-15T06:04:02;4.75;;;3.28;;
61702;SDS011;47622;47.726;3.298;2022-11-15T06:06:28;7.78;;;3.30;;
61702;SDS011;47622;47.726;3.298;2022-11-15T06:08:54;3.72;;;2.75;;
61702;SDS011;47622;47.726;3.298;2022-11-15T06:11:19;7.53;;;3.22;;
61702;SDS011;47622;47.726;3.298;2022-11-15T06:13:45;8.73;;;3.00;;
61702;SDS011;47622;47.726;3.298;2022-11-15T06:16:11;5.75;;;3.28;;
61702;SDS011;47622;47.726;3.298;2022-11-15T06:18:37;4.75;;;3.35;;
61702;SDS011;47622;47.726;3.298;2022-11-15T06:21:02;4.38;;;2.88;;
61702;SDS011;47622;47.726;3.298;2022-11-15T06:23:31;5.68;;;3.10;;
61702;SDS011;47622;47.726;3.298;2022-11-15T06:25:58;7.03;;;3.05;;
61702;SDS011;47622;47.726;3.298;2022-11-15T06:28:24;6.78;;;3.50;;
61702;SDS011;47622;47.726;3.298;2022-11-15T06:30:52;6.63;;;3.30;;
61702;SDS011;47622;47.726;3.298;2022-11-15T06:33:18;4.72;;;2.83;;
61702;SDS011;47622;47.726;3.298;2022-11-15T06:35:44;5.53;;;3.20;;
61702;SDS011;47622;47.726;3.298;2022-11-15T06:38:09;5.13;;;3.25;;
61702;SDS011;47622;47.726;3.298;2022-11-15T06:40:36;7.15;;;3.30;;
61702;SDS011;47622;47.726;3.298;2022-11-15T06:43:03;5.22;;;2.88;;
61702;SDS011;47622;47.726;3.298;2022-11-15T06:45:29;6.80;;;3.00;;
61702;SDS011;47622;47.726;3.298;2022-11-15T06:47:55;4.93;;;3.10;;
61702;SDS011;47622;47.726;3.298;2022-11-15T06:50:21;4.57;;;3.42;;
61702;SDS011;47622;47.726;3.298;2022-11-15T06:52:47;5.63;;;3.70;;
61702;SDS011;47622;47.726;3.298;2022-11-15T06:55:12;7.97;;;3.53;;
61702;SDS011;47622;47.726;3.298;2022-11-15T06:57:45;5.47;;;3.60;;
61702;SDS011;47622;47.726;3.298;2022-11-15T07:00:15;4.90;;;3.92;;
61702;SDS011;47622;47.726;3.298;2022-11-15T07:02:42;5.35;;;3.40;;
61702;SDS011;47622;47.726;3.298;2022-11-15T07:05:08;9.90;;;3.83;;
61702;SDS011;47622;47.726;3.298;2022-11-15T07:07:34;6.95;;;4.32;;
61702;SDS011;47622;47.726;3.298;2022-11-15T07:10:00;5.63;;;3.92;;
61702;SDS011;47622;47.726;3.298;2022-11-15T07:12:27;6.25;;;3.70;;
61702;SDS011;47622;47.726;3.298;2022-11-15T07:14:52;8.05;;;4.05;;
61702;SDS011;47622;47.726;3.298;2022-11-15T07:17:18;4.57;;;3.67;;
61702;SDS011;47622;47.726;3.298;2022-11-15T07:19:44;8.48;;;3.80;;
61702;SDS011;47622;47.726;3.298;2022-11-15T07:22:09;6.40;;;3.83;;
61702;SDS011;47622;47.726;3.298;2022-11-15T07:24:35;5.90;;;4.25;;
61702;SDS011;47622;47.726;3.298;2022-11-15T07:27:00;9.07;;;4.50;;
61702;SDS011;47622;47.726;3.298;2022-11-15T07:29:26;9.32;;;4.53;;
61702;SDS011;47622;47.726;3.298;2022-11-15T07:31:52;7.18;;;4.40;;
61702;SDS011;47622;47.726;3.298;2022-11-15T07:34:17;8.13;;;4.80;;
61702;SDS011;47622;47.726;3.298;2022-11-15T07:36:43;7.55;;;5.05;;
61702;SDS011;47622;47.726;3.298;2022-11-15T07:39:08;7.30;;;4.68;;
61702;SDS011;47622;47.726;3.298;2022-11-15T07:41:36;7.60;;;4.78;;
61702;SDS011;47622;47.726;3.298;2022-11-15T07:44:03;7.30;;;4.18;;
61702;SDS011;47622;47.726;3.298;2022-11-15T07:46:29;7.93;;;4.97;;
61702;SDS011;47622;47.726;3.298;2022-11-15T07:48:56;6.28;;;4.57;;
61702;SDS011;47622;47.726;3.298;2022-11-15T07:51:22;9.40;;;4.57;;
61702;SDS011;47622;47.726;3.298;2022-11-15T07:53:48;7.10;;;4.50;;
61702;SDS011;47622;47.726;3.298;2022-11-15T07:56:13;6.85;;;4.32;;
61702;SDS011;47622;47.726;3.298;2022-11-15T07:58:39;7.03;;;4.25;;
61702;SDS011;47622;47.726;3.298;2022-11-15T08:01:05;5.47;;;4.13;;
61702;SDS011;47622;47.726;3.298;2022-11-15T08:03:32;6.07;;;3.60;;
61702;SDS011;47622;47.726;3.298;2022-11-15T08:05:58;4.68;;;3.70;;
61702;SDS011;47622;47.726;3.298;2022-11-15T08:08:24;4.63;;;3.33;;
61702;SDS011;47622;47.726;3.298;2022-11-15T08:10:50;6.47;;;3.50;;
61702;SDS011;47622;47.726;3.298;2022-11-15T08:13:15;5.18;;;3.33;;
61702;SDS011;47622;47.726;3.298;2022-11-15T08:15:41;6.57;;;3.65;;
61702;SDS011;47622;47.726;3.298;2022-11-15T08:18:12;4.15;;;3.08;;
61702;SDS011;47622;47.726;3.298;2022-11-15T08:20:40;4.85;;;3.20;;
61702;SDS011;47622;47.726;3.298;2022-11-15T08:23:06;3.45;;;2.80;;
61702;SDS011;47622;47.726;3.298;2022-11-15T08:25:33;5.63;;;2.90;;
61702;SDS011;47622;47.726;3.298;2022-11-15T08:28:01;3.92;;;2.72;;
61702;SDS011;47622;47.726;3.298;2022-11-15T08:30:28;4.10;;;2.70;;
61702;SDS011;47622;47.726;3.298;2022-11-15T08:32:56;3.30;;;2.58;;
61702;SDS011;47622;47.726;3.298;2022-11-15T08:35:23;3.92;;;3.33;;
61702;SDS011;47622;47.726;3.298;2022-11-15T08:37:49;7.20;;;2.78;;
61702;SDS011;47622;47.726;3.298;2022-11-15T08:40:15;3.45;;;2.65;;
61702;SDS011;47622;47.726;3.298;2022-11-15T08:42:42;4.65;;;2.63;;
61702;SDS011;47622;47.726;3.298;2022-11-15T08:45:11;3.38;;;2.58;;
61702;SDS011;47622;47.726;3.298;2022-11-15T08:47:36;4.07;;;2.40;;
61702;SDS011;47622;47.726;3.298;2022-11-15T08:50:02;6.53;;;2.30;;
61702;SDS011;47622;47.726;3.298;2022-11-15T08:52:28;4.95;;;2.30;;
61702;SDS011;47622;47.726;3.298;2022-11-15T08:54:53;4.45;;;2.20;;
61702;SDS011;47622;47.726;3.298;2022-11-15T08:57:19;4.63;;;2.58;;
61702;SDS011;47622;47.726;3.298;2022-11-15T08:59:45;2.30;;;1.98;;
61702;SDS011;47622;47.726;3.298;2022-11-15T09:02:11;2.88;;;2.00;;
61702;SDS011;47622;47.726;3.298;2022-11-15T09:04:39;2.65;;;1.95;;
61702;SDS011;47622;47.726;3.298;2022-11-15T09:07:06;4.22;;;1.90;;
61702;SDS011;47622;47.726;3.298;2022-11-15T09:09:33;3.10;;;2.35;;
61702;SDS011;47622;47.726;3.298;2022-11-15T09:11:58;2.40;;;1.83;;
61702;SDS011;47622;47.726;3.298;2022-11-15T09:14:24;2.80;;;2.03;;
61702;SDS011;47622;47.726;3.298;2022-11-15T09:16:49;3.65;;;2.08;;
61702;SDS011;47622;47.726;3.298;2022-11-15T09:19:15;3.58;;;1.88;;
61702;SDS011;47622;47.726;3.298;2022-11-15T09:21:41;3.00;;;1.90;;
61702;SDS011;47622;47.726;3.298;2022-11-15T09:24:06;3.33;;;2.05;;
61702;SDS011;47622;47.726;3.298;2022-11-15T09:26:32;2.83;;;1.90;;
61702;SDS011;47622;47.726;3.298;2022-11-15T09:28:58;3.58;;;2.10;;
61702;SDS011;47622;47.726;3.298;2022-11-15T09:31:23;3.55;;;1.92;;
61702;SDS011;47622;47.726;3.298;2022-11-15T09:33:49;3.10;;;2.13;;
61702;SDS011;47622;47.726;3.298;2022-11-15T09:36:15;3.38;;;2.05;;
61702;SDS011;47622;47.726;3.298;2022-11-15T09:38:41;2.80;;;2.05;;
61702;SDS011;47622;47.726;3.298;2022-11-15T09:43:42;3.97;;;2.13;;
61702;SDS011;47622;47.726;3.298;2022-11-15T09:48:57;3.13;;;2.30;;
61702;SDS011;47622;47.726;3.298;2022-11-15T09:56:48;2.75;;;2.22;;
61702;SDS011;47622;47.726;3.298;2022-11-15T10:04:44;4.47;;;2.15;;
61702;SDS011;47622;47.726;3.298;2022-11-15T10:12:16;2.78;;;2.33;;
61702;SDS011;47622;47.726;3.298;2022-11-15T10:14:43;3.50;;;2.22;;
61702;SDS011;47622;47.726;3.298;2022-11-15T10:20:26;4.45;;;2.30;;
61702;SDS011;47622;47.726;3.298;2022-11-15T10:22:54;2.83;;;2.10;;
61702;SDS011;47622;47.726;3.298;2022-11-15T10:25:27;2.20;;;2.00;;
61702;SDS011;47622;47.726;3.298;2022-11-15T10:27:55;2.58;;;2.10;;
61702;SDS011;47622;47.726;3.298;2022-11-15T10:30:33;4.60;;;2.35;;
61702;SDS011;47622;47.726;3.298;2022-11-15T10:41:31;3.17;;;2.10;;
61702;SDS011;47622;47.726;3.298;2022-11-15T10:44:09;4.50;;;2.05;;
61702;SDS011;47622;47.726;3.298;2022-11-15T10:46:43;6.65;;;2.35;;
61702;SDS011;47622;47.726;3.298;2022-11-15T10:49:26;3.28;;;2.30;;
61702;SDS011;47622;47.726;3.298;2022-11-15T10:52:00;3.38;;;2.10;;
61702;SDS011;47622;47.726;3.298;2022-11-15T10:57:19;5.95;;;2.60;;
61702;SDS011;47622;47.726;3.298;2022-11-15T10:59:57;5.28;;;2.30;;
61702;SDS011;47622;47.726;3.298;2022-11-15T11:05:03;2.70;;;2.30;;
61702;SDS011;47622;47.726;3.298;2022-11-15T11:07:33;3.83;;;2.65;;
61702;SDS011;47622;47.726;3.298;2022-11-15T11:12:31;3.17;;;2.30;;
61702;SDS011;47622;47.726;3.298;2022-11-15T11:15:01;2.60;;;2.30;;
61702;SDS011;47622;47.726;3.298;2022-11-15T11:17:48;4.88;;;2.47;;
61702;SDS011;47622;47.726;3.298;2022-11-15T11:25:34;3.25;;;2.30;;
61702;SDS011;47622;47.726;3.298;2022-11-15T11:28:14;4.10;;;2.50;;
61702;SDS011;47622;47.726;3.298;2022-11-15T11:30:47;3.22;;;2.25;;
61702;SDS011;47622;47.726;3.298;2022-11-15T11:33:31;5.38;;;2.50;;
61702;SDS011;47622;47.726;3.298;2022-11-15T11:45:05;3.28;;;2.42;;
61702;SDS011;47622;47.726;3.298;2022-11-15T11:47:51;11.02;;;2.78;;
61702;SDS011;47622;47.726;3.298;2022-11-15T11:50:37;4.85;;;2.30;;
61702;SDS011;47622;47.726;3.298;2022-11-15T11:56:04;3.35;;;2.40;;
61702;SDS011;47622;47.726;3.298;2022-11-15T11:58:52;3.13;;;2.22;;
61702;SDS011;47622;47.726;3.298;2022-11-15T12:03:48;2.80;;;2.20;;
61702;SDS011;47622;47.726;3.298;2022-11-15T12:06:23;4.68;;;2.60;;
61702;SDS011;47622;47.726;3.298;2022-11-15T12:08:58;4.10;;;2.78;;
61702;SDS011;47622;47.726;3.298;2022-11-15T12:11:42;3.65;;;2.45;;
61702;SDS011;47622;47.726;3.298;2022-11-15T12:14:12;4.30;;;3.00;;
61702;SDS011;47622;47.726;3.298;2022-11-15T12:16:49;3.15;;;2.47;;
61702;SDS011;47622;47.726;3.298;2022-11-15T12:19:15;4.50;;;2.60;;
61702;SDS011;47622;47.726;3.298;2022-11-15T12:21:46;6.82;;;2.83;;
61702;SDS011;47622;47.726;3.298;2022-11-15T12:24:18;4.15;;;2.60;;
61702;SDS011;47622;47.726;3.298;2022-11-15T12:29:51;3.88;;;2.60;;
61702;SDS011;47622;47.726;3.298;2022-11-15T12:32:32;3.53;;;2.35;;
61702;SDS011;47622;47.726;3.298;2022-11-15T12:35:01;6.05;;;2.78;;
61702;SDS011;47622;47.726;3.298;2022-11-15T12:37:48;5.75;;;2.85;;
61702;SDS011;47622;47.726;3.298;2022-11-15T12:40:19;7.03;;;2.53;;
61702;SDS011;47622;47.726;3.298;2022-11-15T12:42:57;4.55;;;2.88;;
61702;SDS011;47622;47.726;3.298;2022-11-15T12:45:46;4.85;;;2.70;;
61702;SDS011;47622;47.726;3.298;2022-11-15T12:58:58;4.05;;;2.50;;
61702;SDS011;47622;47.726;3.298;2022-11-15T13:06:56;3.45;;;2.00;;
61702;SDS011;47622;47.726;3.298;2022-11-15T13:11:59;4.20;;;2.53;;
61702;SDS011;47622;47.726;3.298;2022-11-15T13:19:45;3.35;;;2.20;;
61702;SDS011;47622;47.726;3.298;2022-11-15T13:22:12;3.55;;;2.22;;
61702;SDS011;47622;47.726;3.298;2022-11-15T13:24:57;2.80;;;2.30;;
61702;SDS011;47622;47.726;3.298;2022-11-15T13:27:23;2.90;;;2.28;;
61702;SDS011;47622;47.726;3.298;2022-11-15T13:29:50;5.18;;;2.40;;
61702;SDS011;47622;47.726;3.298;2022-11-15T13:32:16;5.20;;;2.40;;
61702;SDS011;47622;47.726;3.298;2022-11-15T13:34:45;3.63;;;2.67;;
61702;SDS011;47622;47.726;3.298;2022-11-15T13:39:45;2.70;;;2.40;;
61702;SDS011;47622;47.726;3.298;2022-11-15T13:42:15;3.72;;;2.47;;
61702;SDS011;47622;47.726;3.298;2022-11-15T13:44:57;6.25;;;2.40;;
61702;SDS011;47622;47.726;3.298;2022-11-15T13:47:28;3.53;;;2.55;;
61702;SDS011;47622;47.726;3.298;2022-11-15T13:49:58;3.28;;;2.50;;
61702;SDS011;47622;47.726;3.298;2022-11-15T13:52:27;3.75;;;2.17;;
61702;SDS011;47622;47.726;3.298;2022-11-15T13:55:01;3.88;;;2.50;;
61702;SDS011;47622;47.726;3.298;2022-11-15T13:57:51;8.13;;;2.30;;
61702;SDS011;47622;47.726;3.298;2022-11-15T14:00:27;5.85;;;2.30;;
61702;SDS011;47622;47.726;3.298;2022-11-15T14:02:57;4.30;;;2.67;;
61702;SDS011;47622;47.726;3.298;2022-11-15T14:06:03;4.22;;;2.88;;
61702;SDS011;47622;47.726;3.298;2022-11-15T14:08:40;3.67;;;2.40;;
61702;SDS011;47622;47.726;3.298;2022-11-15T14:11:22;3.90;;;2.85;;
61702;SDS011;47622;47.726;3.298;2022-11-15T14:24:47;4.95;;;3.47;;
61702;SDS011;47622;47.726;3.298;2022-11-15T14:27:30;4.25;;;3.08;;
61702;SDS011;47622;47.726;3.298;2022-11-15T14:29:56;2.70;;;2.47;;
61702;SDS011;47622;47.726;3.298;2022-11-15T14:32:29;2.80;;;2.40;;
61702;SDS011;47622;47.726;3.298;2022-11-15T14:35:03;3.38;;;2.60;;
61702;SDS011;47622;47.726;3.298;2022-11-15T14:37:32;4.38;;;2.30;;
61702;SDS011;47622;47.726;3.298;2022-11-15T14:40:03;7.25;;;2.53;;
61702;SDS011;47622;47.726;3.298;2022-11-15T14:42:30;3.97;;;2.63;;
61702;SDS011;47622;47.726;3.298;2022-11-15T14:44:57;4.35;;;2.60;;
61702;SDS011;47622;47.726;3.298;2022-11-15T14:47:23;3.72;;;2.70;;
61702;SDS011;47622;47.726;3.298;2022-11-15T14:49:48;6.50;;;2.83;;
61702;SDS011;47622;47.726;3.298;2022-11-15T14:52:30;3.42;;;2.47;;
61702;SDS011;47622;47.726;3.298;2022-11-15T14:55:01;3.30;;;2.30;;
61702;SDS011;47622;47.726;3.298;2022-11-15T14:57:29;4.03;;;2.88;;
61702;SDS011;47622;47.726;3.298;2022-11-15T14:59:55;3.25;;;2.53;;
61702;SDS011;47622;47.726;3.298;2022-11-15T15:02:25;4.70;;;2.70;;
61702;SDS011;47622;47.726;3.298;2022-11-15T15:04:52;4.05;;;2.50;;
61702;SDS011;47622;47.726;3.298;2022-11-15T15:07:19;3.40;;;2.50;;
61702;SDS011;47622;47.726;3.298;2022-11-15T15:09:45;5.90;;;2.90;;
61702;SDS011;47622;47.726;3.298;2022-11-15T15:12:18;4.45;;;2.72;;
61702;SDS011;47622;47.726;3.298;2022-11-15T15:14:47;3.35;;;2.28;;
61702;SDS011;47622;47.726;3.298;2022-11-15T15:17:14;6.25;;;2.78;;
61702;SDS011;47622;47.726;3.298;2022-11-15T15:19:41;2.88;;;2.25;;
61702;SDS011;47622;47.726;3.298;2022-11-15T15:22:16;3.75;;;2.67;;
61702;SDS011;47622;47.726;3.298;2022-11-15T15:24:44;8.48;;;2.83;;
61702;SDS011;47622;47.726;3.298;2022-11-15T15:27:11;4.57;;;2.80;;
61702;SDS011;47622;47.726;3.298;2022-11-15T15:29:37;6.93;;;3.10;;
61702;SDS011;47622;47.726;3.298;2022-11-15T15:32:03;4.60;;;2.60;;
61702;SDS011;47622;47.726;3.298;2022-11-15T15:34:31;5.03;;;2.85;;
61702;SDS011;47622;47.726;3.298;2022-11-15T15:39:44;6.13;;;3.08;;
61702;SDS011;47622;47.726;3.298;2022-11-15T15:42:10;5.28;;;2.75;;
61702;SDS011;47622;47.726;3.298;2022-11-15T15:44:35;8.80;;;3.78;;
61702;SDS011;47622;47.726;3.298;2022-11-15T15:47:01;8.25;;;3.20;;
61702;SDS011;47622;47.726;3.298;2022-11-15T15:49:27;4.55;;;3.05;;
61702;SDS011;47622;47.726;3.298;2022-11-15T15:51:52;4.22;;;2.80;;
61702;SDS011;47622;47.726;3.298;2022-11-15T15:54:18;4.30;;;3.35;;
61702;SDS011;47622;47.726;3.298;2022-11-15T15:56:44;7.45;;;3.47;;
61702;SDS011;47622;47.726;3.298;2022-11-15T15:59:09;4.90;;;3.10;;
61702;SDS011;47622;47.726;3.298;2022-11-15T16:01:35;6.13;;;3.47;;
61702;SDS011;47622;47.726;3.298;2022-11-15T16:04:01;6.90;;;3.30;;
61702;SDS011;47622;47.726;3.298;2022-11-15T16:06:36;8.50;;;3.17;;
61702;SDS011;47622;47.726;3.298;2022-11-15T16:09:16;6.22;;;3.60;;
61702;SDS011;47622;47.726;3.298;2022-11-15T16:11:46;6.00;;;3.67;;
61702;SDS011;47622;47.726;3.298;2022-11-15T16:14:12;6.47;;;3.45;;
61702;SDS011;47622;47.726;3.298;2022-11-15T16:16:37;5.85;;;3.10;;
61702;SDS011;47622;47.726;3.298;2022-11-15T16:19:04;4.90;;;3.45;;
61702;SDS011;47622;47.726;3.298;2022-11-15T16:21:30;6.15;;;3.75;;
61702;SDS011;47622;47.726;3.298;2022-11-15T16:23:56;5.90;;;3.58;;
61702;SDS011;47622;47.726;3.298;2022-11-15T16:26:23;6.80;;;3.35;;
61702;SDS011;47622;47.726;3.298;2022-11-15T16:28:51;5.55;;;3.70;;
61702;SDS011;47622;47.726;3.298;2022-11-15T16:31:17;5.35;;;3.70;;
61702;SDS011;47622;47.726;3.298;2022-11-15T16:33:44;7.20;;;3.85;;
61702;SDS011;47622;47.726;3.298;2022-11-15T16:36:24;6.47;;;3.92;;
61702;SDS011;47622;47.726;3.298;2022-11-15T16:38:51;5.30;;;4.15;;
61702;SDS011;47622;47.726;3.298;2022-11-15T16:41:17;6.53;;;3.80;;
61702;SDS011;47622;47.726;3.298;2022-11-15T16:43:44;7.38;;;4.05;;
61702;SDS011;47622;47.726;3.298;2022-11-15T16:46:21;8.20;;;3.55;;
61702;SDS011;47622;47.726;3.298;2022-11-15T16:48:48;5.38;;;3.85;;
61702;SDS011;47622;47.726;3.298;2022-11-15T16:51:14;6.65;;;3.80;;
61702;SDS011;47622;47.726;3.298;2022-11-15T16:53:41;4.78;;;3.88;;
61702;SDS011;47622;47.726;3.298;2022-11-15T16:56:29;8.55;;;3.97;;
61702;SDS011;47622;47.726;3.298;2022-11-15T16:58:54;6.53;;;4.25;;
61702;SDS011;47622;47.726;3.298;2022-11-15T17:01:28;5.03;;;3.85;;
61702;SDS011;47622;47.726;3.298;2022-11-15T17:03:56;8.90;;;4.20;;
61702;SDS011;47622;47.726;3.298;2022-11-15T17:06:22;5.97;;;4.38;;
61702;SDS011;47622;47.726;3.298;2022-11-15T17:08:48;6.80;;;4.40;;
61702;SDS011;47622;47.726;3.298;2022-11-15T17:11:18;4.72;;;3.53;;
61702;SDS011;47622;47.726;3.298;2022-11-15T17:13:45;6.18;;;4.30;;
61702;SDS011;47622;47.726;3.298;2022-11-15T17:16:12;7.05;;;3.92;;
61702;SDS011;47622;47.726;3.298;2022-11-15T17:18:39;7.25;;;4.38;;
61702;SDS011;47622;47.726;3.298;2022-11-15T17:21:07;6.82;;;3.90;;
61702;SDS011;47622;47.726;3.298;2022-11-15T17:23:37;7.75;;;4.10;;